sensor_id;sensor_type;location;lat;lon;timestamp;pressure;altitude;pressure_sealevel;temperature;humidity
56414;BME280;42318;48.452;19.526;2022-11-14T00:04:47;99424.31;;;18.84;61.52
56414;BME280;42318;48.452;19.526;2022-11-14T00:12:18;99422.50;;;18.78;61.17
56414;BME280;42318;48.452;19.526;2022-11-14T00:19:49;99427.34;;;18.76;61.38
56414;BME280;42318;48.452;19.526;2022-11-14T00:27:19;99421.97;;;18.69;61.51
56414;BME280;42318;48.452;19.526;2022-11-14T00:34:50;99430.34;;;18.68;61.76
56414;BME280;42318;48.452;19.526;2022-11-14T00:42:21;99415.94;;;18.61;61.45
56414;BME280;42318;48.452;19.526;2022-11-14T00:49:52;99420.53;;;18.60;61.52
56414;BME280;42318;48.452;19.526;2022-11-14T00:57:22;99410.38;;;18.56;61.61
56414;BME280;42318;48.452;19.526;2022-11-14T01:04:53;99416.25;;;18.52;61.65
56414;BME280;42318;48.452;19.526;2022-11-14T01:12:24;99392.09;;;18.44;61.63
56414;BME280;42318;48.452;19.526;2022-11-14T01:19:55;99402.50;;;18.47;61.70
56414;BME280;42318;48.452;19.526;2022-11-14T01:27:29;99398.59;;;18.43;61.89
56414;BME280;42318;48.452;19.526;2022-11-14T01:35:00;99397.97;;;18.41;61.32
56414;BME280;42318;48.452;19.526;2022-11-14T01:42:31;99380.88;;;18.41;61.39
56414;BME280;42318;48.452;19.526;2022-11-14T01:50:04;99379.66;;;18.37;61.30
56414;BME280;42318;48.452;19.526;2022-11-14T01:57:39;99374.47;;;18.35;61.59
56414;BME280;42318;48.452;19.526;2022-11-14T02:05:14;99385.75;;;18.32;61.52
56414;BME280;42318;48.452;19.526;2022-11-14T02:12:46;99381.84;;;18.28;61.48
56414;BME280;42318;48.452;19.526;2022-11-14T02:20:25;99388.09;;;18.29;61.66
56414;BME280;42318;48.452;19.526;2022-11-14T02:27:59;99386.03;;;18.24;61.55
56414;BME280;42318;48.452;19.526;2022-11-14T02:35:30;99377.34;;;18.15;61.27
56414;BME280;42318;48.452;19.526;2022-11-14T02:43:01;99374.84;;;18.14;61.29
56414;BME280;42318;48.452;19.526;2022-11-14T02:50:32;99374.41;;;18.17;61.42
56414;BME280;42318;48.452;19.526;2022-11-14T02:58:03;99386.13;;;18.11;61.58
56414;BME280;42318;48.452;19.526;2022-11-14T03:05:33;99386.97;;;18.11;61.59
56414;BME280;42318;48.452;19.526;2022-11-14T03:13:04;99376.56;;;18.08;61.19
56414;BME280;42318;48.452;19.526;2022-11-14T03:20:35;99367.00;;;18.06;61.43
56414;BME280;42318;48.452;19.526;2022-11-14T03:28:06;99365.56;;;18.03;61.63
56414;BME280;42318;48.452;19.526;2022-11-14T03:35:41;99363.06;;;18.02;61.60
56414;BME280;42318;48.452;19.526;2022-11-14T03:43:12;99337.06;;;17.94;61.88
56414;BME280;42318;48.452;19.526;2022-11-14T03:50:43;99348.72;;;17.95;61.71
56414;BME280;42318;48.452;19.526;2022-11-14T03:58:14;99343.31;;;17.95;61.41
56414;BME280;42318;48.452;19.526;2022-11-14T04:05:45;99327.25;;;17.93;61.42
56414;BME280;42318;48.452;19.526;2022-11-14T04:13:16;99323.13;;;17.91;61.55
56414;BME280;42318;48.452;19.526;2022-11-14T04:20:46;99312.56;;;17.82;61.50
56414;BME280;42318;48.452;19.526;2022-11-14T04:28:17;99318.13;;;17.87;61.42
56414;BME280;42318;48.452;19.526;2022-11-14T04:35:48;99315.66;;;17.86;61.55
56414;BME280;42318;48.452;19.526;2022-11-14T04:43:19;99307.97;;;17.83;61.26
56414;BME280;42318;48.452;19.526;2022-11-14T04:50:50;99309.47;;;17.79;61.85
56414;BME280;42318;48.452;19.526;2022-11-14T04:58:21;99306.56;;;17.74;61.82
56414;BME280;42318;48.452;19.526;2022-11-14T05:05:52;99302.44;;;17.65;61.75
56414;BME280;42318;48.452;19.526;2022-11-14T05:13:22;99315.97;;;17.71;61.54
56414;BME280;42318;48.452;19.526;2022-11-14T05:20:57;99313.47;;;17.70;61.54
56414;BME280;42318;48.452;19.526;2022-11-14T05:28:27;99308.28;;;17.68;61.61
56414;BME280;42318;48.452;19.526;2022-11-14T05:36:03;99308.69;;;17.65;61.64
56414;BME280;42318;48.452;19.526;2022-11-14T05:43:34;99302.66;;;17.63;61.92
56414;BME280;42318;48.452;19.526;2022-11-14T05:51:06;99309.13;;;17.62;61.60
56414;BME280;42318;48.452;19.526;2022-11-14T05:58:38;99313.94;;;17.60;61.60
56414;BME280;42318;48.452;19.526;2022-11-14T06:06:11;99311.22;;;17.60;61.83
56414;BME280;42318;48.452;19.526;2022-11-14T06:13:43;99314.31;;;17.70;61.52
56414;BME280;42318;48.452;19.526;2022-11-14T06:21:17;99311.34;;;17.78;61.30
56414;BME280;42318;48.452;19.526;2022-11-14T06:28:49;99322.78;;;17.80;61.19
56414;BME280;42318;48.452;19.526;2022-11-14T06:36:20;99308.44;;;17.73;61.47
56414;BME280;42318;48.452;19.526;2022-11-14T06:43:51;99321.75;;;17.81;61.31
56414;BME280;42318;48.452;19.526;2022-11-14T06:51:23;99317.97;;;17.82;61.68
56414;BME280;42318;48.452;19.526;2022-11-14T06:58:54;99316.78;;;17.72;61.50
56414;BME280;42318;48.452;19.526;2022-11-14T07:06:26;99321.97;;;17.80;61.46
56414;BME280;42318;48.452;19.526;2022-11-14T07:13:59;99325.06;;;17.83;61.34
56414;BME280;42318;48.452;19.526;2022-11-14T07:21:32;99330.13;;;17.98;61.07
56414;BME280;42318;48.452;19.526;2022-11-14T07:29:03;99324.59;;;18.11;60.96
56414;BME280;42318;48.452;19.526;2022-11-14T07:36:33;99317.63;;;18.22;60.56
56414;BME280;42318;48.452;19.526;2022-11-14T07:44:04;99311.75;;;18.25;60.49
56414;BME280;42318;48.452;19.526;2022-11-14T07:51:35;99315.00;;;18.34;60.86
56414;BME280;42318;48.452;19.526;2022-11-14T07:59:07;99320.34;;;18.40;60.73
56414;BME280;42318;48.452;19.526;2022-11-14T08:06:37;99314.00;;;18.46;60.90
56414;BME280;42318;48.452;19.526;2022-11-14T08:14:08;99310.69;;;18.44;60.71
56414;BME280;42318;48.452;19.526;2022-11-14T08:21:39;99315.81;;;18.52;60.53
56414;BME280;42318;48.452;19.526;2022-11-14T08:29:10;99307.91;;;18.51;60.86
56414;BME280;42318;48.452;19.526;2022-11-14T08:36:40;99302.84;;;18.55;61.15
56414;BME280;42318;48.452;19.526;2022-11-14T08:44:11;99294.34;;;18.51;61.54
56414;BME280;42318;48.452;19.526;2022-11-14T08:51:42;99300.06;;;18.61;61.56
56414;BME280;42318;48.452;19.526;2022-11-14T08:59:12;99299.63;;;18.64;62.15
56414;BME280;42318;48.452;19.526;2022-11-14T09:06:43;99295.66;;;18.67;62.01
56414;BME280;42318;48.452;19.526;2022-11-14T09:14:15;99296.88;;;18.71;62.01
56414;BME280;42318;48.452;19.526;2022-11-14T09:21:46;99293.09;;;18.72;62.56
56414;BME280;42318;48.452;19.526;2022-11-14T09:29:17;99280.94;;;18.74;62.43
56414;BME280;42318;48.452;19.526;2022-11-14T09:36:48;99267.16;;;18.76;62.17
56414;BME280;42318;48.452;19.526;2022-11-14T09:44:32;99265.94;;;18.72;62.01
56414;BME280;42318;48.452;19.526;2022-11-14T09:59:59;99252.19;;;18.85;62.91
56414;BME280;42318;48.452;19.526;2022-11-14T10:07:39;99225.59;;;18.75;62.95
56414;BME280;42318;48.452;19.526;2022-11-14T10:30:43;99227.91;;;18.90;61.90
56414;BME280;42318;48.452;19.526;2022-11-14T10:38:19;99212.19;;;18.92;61.69
56414;BME280;42318;48.452;19.526;2022-11-14T10:46:31;99194.84;;;18.93;61.80
56414;BME280;42318;48.452;19.526;2022-11-14T10:54:27;99189.19;;;18.95;61.52
56414;BME280;42318;48.452;19.526;2022-11-14T11:02:02;99182.69;;;18.96;61.63
56414;BME280;42318;48.452;19.526;2022-11-14T11:09:34;99175.13;;;18.98;61.73
56414;BME280;42318;48.452;19.526;2022-11-14T11:17:24;99166.63;;;18.94;61.31
56414;BME280;42318;48.452;19.526;2022-11-14T11:24:55;99151.75;;;18.97;61.47
56414;BME280;42318;48.452;19.526;2022-11-14T11:32:25;99147.75;;;18.99;61.69
56414;BME280;42318;48.452;19.526;2022-11-14T11:40:13;99127.66;;;19.00;61.51
56414;BME280;42318;48.452;19.526;2022-11-14T11:47:54;99125.53;;;19.02;61.54
56414;BME280;42318;48.452;19.526;2022-11-14T11:55:31;99126.38;;;19.03;61.38
56414;BME280;42318;48.452;19.526;2022-11-14T12:03:04;99101.09;;;19.02;61.35
56414;BME280;42318;48.452;19.526;2022-11-14T12:10:40;99101.09;;;19.02;61.31
56414;BME280;42318;48.452;19.526;2022-11-14T12:34:00;99083.28;;;19.06;61.24
56414;BME280;42318;48.452;19.526;2022-11-14T12:41:35;99075.13;;;19.06;60.82
56414;BME280;42318;48.452;19.526;2022-11-14T13:13:05;99069.34;;;19.03;62.19
56414;BME280;42318;48.452;19.526;2022-11-14T13:21:15;99059.19;;;18.98;62.24
56414;BME280;42318;48.452;19.526;2022-11-14T13:29:05;99048.09;;;18.88;62.41
56414;BME280;42318;48.452;19.526;2022-11-14T13:36:39;99060.94;;;18.93;62.36
56414;BME280;42318;48.452;19.526;2022-11-14T13:52:29;99022.00;;;18.75;62.40
56414;BME280;42318;48.452;19.526;2022-11-14T14:00:08;99031.31;;;18.79;62.38
56414;BME280;42318;48.452;19.526;2022-11-14T14:08:07;99028.84;;;18.78;62.42
56414;BME280;42318;48.452;19.526;2022-11-14T14:15:50;99020.94;;;18.76;63.32
56414;BME280;42318;48.452;19.526;2022-11-14T14:31:11;99021.41;;;18.73;63.79
56414;BME280;42318;48.452;19.526;2022-11-14T14:38:42;99007.13;;;18.78;63.88
56414;BME280;42318;48.452;19.526;2022-11-14T14:46:13;98996.84;;;18.80;63.86
56414;BME280;42318;48.452;19.526;2022-11-14T14:53:51;98996.97;;;18.85;63.70
56414;BME280;42318;48.452;19.526;2022-11-14T15:01:30;98991.91;;;18.89;63.28
56414;BME280;42318;48.452;19.526;2022-11-14T15:09:09;98985.16;;;18.91;62.87
56414;BME280;42318;48.452;19.526;2022-11-14T15:16:40;98995.31;;;18.96;62.26
56414;BME280;42318;48.452;19.526;2022-11-14T15:24:17;98995.66;;;18.99;61.89
56414;BME280;42318;48.452;19.526;2022-11-14T15:31:54;98982.91;;;19.00;61.81
56414;BME280;42318;48.452;19.526;2022-11-14T15:39:26;98987.75;;;18.98;61.38
56414;BME280;42318;48.452;19.526;2022-11-14T15:46:58;98989.16;;;19.00;61.39
56414;BME280;42318;48.452;19.526;2022-11-14T15:54:33;98984.91;;;19.04;61.82
56414;BME280;42318;48.452;19.526;2022-11-14T16:02:21;98989.75;;;19.02;61.50
56414;BME280;42318;48.452;19.526;2022-11-14T16:09:52;98962.03;;;18.89;61.63
56414;BME280;42318;48.452;19.526;2022-11-14T16:17:23;98981.84;;;19.01;61.31
56414;BME280;42318;48.452;19.526;2022-11-14T16:24:54;98983.75;;;19.00;61.00
56414;BME280;42318;48.452;19.526;2022-11-14T16:32:25;98984.56;;;19.01;61.21
56414;BME280;42318;48.452;19.526;2022-11-14T16:39:57;98979.97;;;19.01;61.11
56414;BME280;42318;48.452;19.526;2022-11-14T16:47:28;98985.63;;;19.00;61.26
56414;BME280;42318;48.452;19.526;2022-11-14T16:55:01;98971.22;;;18.99;60.82
56414;BME280;42318;48.452;19.526;2022-11-14T17:02:31;98968.28;;;18.89;61.12
56414;BME280;42318;48.452;19.526;2022-11-14T17:10:03;98961.31;;;18.93;61.02
56414;BME280;42318;48.452;19.526;2022-11-14T17:17:35;98974.75;;;19.00;61.14
56414;BME280;42318;48.452;19.526;2022-11-14T17:25:06;98972.88;;;19.00;60.91
56414;BME280;42318;48.452;19.526;2022-11-14T17:32:37;98967.91;;;18.97;61.65
56414;BME280;42318;48.452;19.526;2022-11-14T17:40:08;98960.34;;;18.99;62.23
56414;BME280;42318;48.452;19.526;2022-11-14T17:47:39;98958.47;;;19.00;62.00
56414;BME280;42318;48.452;19.526;2022-11-14T17:55:10;98962.00;;;19.00;62.05
56414;BME280;42318;48.452;19.526;2022-11-14T18:02:41;98960.94;;;19.01;62.72
56414;BME280;42318;48.452;19.526;2022-11-14T18:10:12;98953.28;;;18.98;62.82
56414;BME280;42318;48.452;19.526;2022-11-14T18:17:43;98942.41;;;18.98;62.37
56414;BME280;42318;48.452;19.526;2022-11-14T18:25:13;98959.28;;;19.00;62.86
56414;BME280;42318;48.452;19.526;2022-11-14T18:32:44;98941.94;;;19.01;63.02
56414;BME280;42318;48.452;19.526;2022-11-14T18:40:15;98941.69;;;19.03;63.07
56414;BME280;42318;48.452;19.526;2022-11-14T18:47:47;98933.56;;;19.03;63.01
56414;BME280;42318;48.452;19.526;2022-11-14T18:55:17;98940.41;;;19.05;62.50
56414;BME280;42318;48.452;19.526;2022-11-14T19:02:51;98945.25;;;19.03;62.56
56414;BME280;42318;48.452;19.526;2022-11-14T19:10:22;98946.31;;;19.02;62.56
56414;BME280;42318;48.452;19.526;2022-11-14T19:17:52;98938.75;;;19.04;62.66
56414;BME280;42318;48.452;19.526;2022-11-14T19:25:23;98941.94;;;19.01;61.99
56414;BME280;42318;48.452;19.526;2022-11-14T19:32:54;98937.09;;;19.03;61.41
56414;BME280;42318;48.452;19.526;2022-11-14T19:40:25;98936.50;;;19.01;61.90
56414;BME280;42318;48.452;19.526;2022-11-14T19:47:57;98927.28;;;19.02;62.03
56414;BME280;42318;48.452;19.526;2022-11-14T19:55:28;98932.38;;;18.99;62.12
56414;BME280;42318;48.452;19.526;2022-11-14T20:02:59;98888.97;;;18.75;61.88
56414;BME280;42318;48.452;19.526;2022-11-14T20:10:30;98921.28;;;19.00;61.95
56414;BME280;42318;48.452;19.526;2022-11-14T20:18:01;98919.63;;;18.99;61.45
56414;BME280;42318;48.452;19.526;2022-11-14T20:25:34;98899.44;;;18.95;61.86
56414;BME280;42318;48.452;19.526;2022-11-14T20:33:06;98902.97;;;18.96;62.12
56414;BME280;42318;48.452;19.526;2022-11-14T20:40:37;98898.38;;;18.96;61.57
56414;BME280;42318;48.452;19.526;2022-11-14T20:48:08;98885.41;;;18.87;61.64
56414;BME280;42318;48.452;19.526;2022-11-14T20:55:39;98892.59;;;18.93;61.43
56414;BME280;42318;48.452;19.526;2022-11-14T21:03:10;98861.47;;;18.83;61.66
56414;BME280;42318;48.452;19.526;2022-11-14T21:10:43;98876.56;;;18.91;61.67
56414;BME280;42318;48.452;19.526;2022-11-14T21:18:17;98859.56;;;18.84;61.74
56414;BME280;42318;48.452;19.526;2022-11-14T21:25:48;98858.59;;;18.90;61.58
56414;BME280;42318;48.452;19.526;2022-11-14T21:33:18;98849.63;;;18.90;61.34
56414;BME280;42318;48.452;19.526;2022-11-14T21:40:53;98828.97;;;18.89;61.29
56414;BME280;42318;48.452;19.526;2022-11-14T21:48:25;98833.81;;;18.87;61.34
56414;BME280;42318;48.452;19.526;2022-11-14T21:56:06;98840.09;;;18.87;61.11
56414;BME280;42318;48.452;19.526;2022-11-14T22:03:39;98835.81;;;18.91;60.87
56414;BME280;42318;48.452;19.526;2022-11-14T22:11:28;98829.56;;;18.91;60.80
56414;BME280;42318;48.452;19.526;2022-11-14T22:18:59;98818.25;;;18.82;61.33
56414;BME280;42318;48.452;19.526;2022-11-14T22:26:30;98827.09;;;18.89;61.38
56414;BME280;42318;48.452;19.526;2022-11-14T22:34:01;98818.59;;;18.86;61.54
56414;BME280;42318;48.452;19.526;2022-11-14T22:41:32;98815.53;;;18.82;61.16
56414;BME280;42318;48.452;19.526;2022-11-14T22:49:03;98812.84;;;18.82;61.34
56414;BME280;42318;48.452;19.526;2022-11-14T22:56:34;98818.75;;;18.79;60.97
56414;BME280;42318;48.452;19.526;2022-11-14T23:04:05;98810.59;;;18.79;61.14
56414;BME280;42318;48.452;19.526;2022-11-14T23:11:35;98803.41;;;18.73;61.19
56414;BME280;42318;48.452;19.526;2022-11-14T23:19:06;98796.69;;;18.75;61.39
56414;BME280;42318;48.452;19.526;2022-11-14T23:26:37;98788.78;;;18.74;61.34
56414;BME280;42318;48.452;19.526;2022-11-14T23:34:08;98799.16;;;18.77;61.30
56414;BME280;42318;48.452;19.526;2022-11-14T23:41:39;98778.25;;;18.77;60.87
56414;BME280;42318;48.452;19.526;2022-11-14T23:49:09;98785.34;;;18.78;61.04
56414;BME280;42318;48.452;19.526;2022-11-14T23:56:40;98774.47;;;18.78;60.75
